Aeroporto :
LOGIN :

Iscrizione | Disclaimer

   EN    FR    IT 

 










Sommario :    VFR   VFR Marginale   IFR   IFR Intensivo   IFR Molto Intensivo
Visibilità : 
Base nubi : 
>= 8 km
>= 3000ft
5 / 8 km
1000 / 3000 ft
1500m / 5 km
500 / 1000 ft
800 / 1500m
200 / 500 ft
< 800m
< 200 ft
Simboli :   Temporali  Nebbia  Neve Forte  Precipitazioni Forti  Vento > 20 kt
SIGMETs :   Varie  Temporali  Ghiacco  Turbolenza  Onda orograficha  Ceneri Vulcaniche






- Altitudine del aeroporto : 424 ft
- Codice IATA : QGY


LHPR - Györ Per

ULTIMO METAR :
  • 210515Z 14006KT 4000 -DZ BR OVC006 10/10 Q1011

METARs OBSOLETI :
  • 210445Z AUTO 08003KT 060V120 6000 DZ BKN006 10/10 Q1011
  • 210415Z AUTO 09001KT 4400 -SHRA BR BKN008 10/10 Q1011
  • 210345Z AUTO 11002KT 4000 BR OVC010 10/10 Q1011
  • 210315Z AUTO 12003KT 4100 +DZ BR BKN006 BKN021 10/10 Q1011

TAF TAF LHPR
Valido dal 21 a 06 ore il 21 a 15 ore UTC


210515Z 2106/2115 13006KT 6000 BKN012
TEMPO 2106/2108 3000 DZ BR OVC006
BECMG 2109/2112 19010KT 8000 BKN020
BECMG 2112/2115 CAVOK



MetMap, La meteo Aeronautica in un colpo d'occhio ! - Copyright ORBIFLY Dicembre 2007 - Disclaimer

ORBIFLY MET'MAP TEAM :

Programmazione e sviluppo : Alexandra Zaïnal
Concezione e sviluppo : Baudouin d'Aumeries
Co-Programmazione e sviluppo : Marc-Olivier Méhu
Supporto tecnico e logistico : Manuel Goepfert
Aiuto per la traduzione : Arnaldo La Scala

Contatto : metmap@orbifly.com




FONTI E CREDITI :

   NOAA